Time;durP1;ratioP1;P1;durP2;ratioP2;P2;SDS_P1;SDS_P2;PMS_P1;PMS_P2;Temp;Humidity;BMP_temperature;BMP_pressure;BME280_temperature;BME280_humidity;BME280_pressure;Samples;Min_cycle;Max_cycle;Signal;HPM_P1;HPM_P2
2022/07/08 00:00:30;;;;;;;0.80;0.80;;;;;;;;;;5072446;28;20430;-78
2022/07/08 00:02:56;;;;;;;0.70;0.60;;;;;;;;;;5054749;28;20475;-76
2022/07/08 00:05:23;;;;;;;0.70;0.60;;;;;;;;;;5072152;28;20528;-76
2022/07/08 00:07:51;;;;;;;0.80;0.80;;;;;;;;;;5073611;28;20470;-77
2022/07/08 00:10:19;;;;;;;0.70;0.60;;;;;;;;;;5058893;28;20933;-77
2022/07/08 00:12:45;;;;;;;0.80;0.70;;;;;;;;;;5075259;28;20810;-77
2022/07/08 00:15:12;;;;;;;0.70;0.60;;;;;;;;;;5058753;28;20437;-77
2022/07/08 00:17:39;;;;;;;1.20;1.10;;;;;;;;;;5076432;28;20527;-77
2022/07/08 00:20:07;;;;;;;0.80;0.70;;;;;;;;;;5074636;28;20549;-76
2022/07/08 00:22:33;;;;;;;0.80;0.80;;;;;;;;;;5059024;28;20463;-77
2022/07/08 00:25:01;;;;;;;1.10;0.97;;;;;;;;;;5058394;28;20893;-77
2022/07/08 00:27:28;;;;;;;0.70;0.70;;;;;;;;;;5058547;28;20439;-77
2022/07/08 00:29:55;;;;;;;1.57;1.00;;;;;;;;;;5055151;28;20469;-77
2022/07/08 00:32:22;;;;;;;0.80;0.80;;;;;;;;;;5075392;28;20546;-79
2022/07/08 00:34:52;;;;;;;0.70;0.70;;;;;;;;;;5057988;28;20456;-77
2022/07/08 00:37:19;;;;;;;0.70;0.67;;;;;;;;;;5057804;28;20463;-77
2022/07/08 00:39:46;;;;;;;0.70;0.70;;;;;;;;;;5058549;28;20450;-78
2022/07/08 00:42:14;;;;;;;0.70;0.70;;;;;;;;;;5058160;28;20843;-77
2022/07/08 00:44:40;;;;;;;0.70;0.70;;;;;;;;;;5058231;28;20445;-77
2022/07/08 00:47:07;;;;;;;0.70;0.60;;;;;;;;;;5058185;28;20447;-77
2022/07/08 00:49:35;;;;;;;0.70;0.70;;;;;;;;;;5074914;28;20967;-77
2022/07/08 00:52:02;;;;;;;1.37;1.17;;;;;;;;;;5075234;28;20975;-79
2022/07/08 00:54:29;;;;;;;0.70;0.70;;;;;;;;;;5074316;28;20459;-77
2022/07/08 00:56:57;;;;;;;0.80;0.80;;;;;;;;;;5057418;28;20513;-78
2022/07/08 00:59:30;;;;;;;0.70;0.70;;;;;;;;;;5057233;28;20425;-77
2022/07/08 01:02:02;;;;;;;0.70;0.70;;;;;;;;;;5054835;28;20455;-77
2022/07/08 01:04:31;;;;;;;0.70;0.60;;;;;;;;;;5054386;28;20445;-77
2022/07/08 01:06:58;;;;;;;0.70;0.70;;;;;;;;;;5054919;28;20448;-77
2022/07/08 01:09:25;;;;;;;0.70;0.60;;;;;;;;;;5055689;28;20975;-77
2022/07/08 01:11:53;;;;;;;0.70;0.60;;;;;;;;;;5054543;28;20449;-77
2022/07/08 01:14:20;;;;;;;0.70;0.60;;;;;;;;;;5036376;28;20467;-76
2022/07/08 01:16:49;;;;;;;0.70;0.60;;;;;;;;;;5054233;28;20443;-77
2022/07/08 01:19:16;;;;;;;0.70;0.70;;;;;;;;;;5051521;28;20807;-76
2022/07/08 01:21:45;;;;;;;0.70;0.70;;;;;;;;;;5074312;28;20492;-76
2022/07/08 01:24:12;;;;;;;0.70;0.70;;;;;;;;;;5073882;28;20449;-76
2022/07/08 01:26:40;;;;;;;0.70;0.60;;;;;;;;;;5073202;28;20540;-77
2022/07/08 01:29:08;;;;;;;0.70;0.70;;;;;;;;;;5045322;28;21020;-76
2022/07/08 01:31:35;;;;;;;0.70;0.70;;;;;;;;;;5036934;28;20786;-77
2022/07/08 01:34:05;;;;;;;0.70;0.60;;;;;;;;;;5037290;28;20863;-77
2022/07/08 01:36:32;;;;;;;0.70;0.60;;;;;;;;;;5068794;28;20461;-76
2022/07/08 01:39:01;;;;;;;0.70;0.60;;;;;;;;;;5073803;28;20461;-77
2022/07/08 01:41:29;;;;;;;0.80;0.80;;;;;;;;;;5073985;28;20997;-76
2022/07/08 01:43:58;;;;;;;0.70;0.60;;;;;;;;;;5073965;28;20450;-77
2022/07/08 01:46:27;;;;;;;0.70;0.60;;;;;;;;;;5073677;28;20909;-76
2022/07/08 01:48:55;;;;;;;0.70;0.70;;;;;;;;;;5073743;28;20463;-77
2022/07/08 01:51:24;;;;;;;0.70;0.70;;;;;;;;;;5072590;28;20471;-77
2022/07/08 01:53:53;;;;;;;0.80;0.70;;;;;;;;;;5074242;28;20447;-77
2022/07/08 01:56:23;;;;;;;0.70;0.70;;;;;;;;;;5073588;28;20495;-77
2022/07/08 01:58:50;;;;;;;0.70;0.60;;;;;;;;;;5057003;28;20524;-76
2022/07/08 02:01:19;;;;;;;0.70;0.70;;;;;;;;;;5073799;28;20954;-76
2022/07/08 02:03:47;;;;;;;0.70;0.70;;;;;;;;;;5073798;28;20457;-77
2022/07/08 02:06:15;;;;;;;0.70;0.63;;;;;;;;;;5073213;28;20832;-77
2022/07/08 02:08:41;;;;;;;0.70;0.70;;;;;;;;;;5072916;28;20501;-76
2022/07/08 02:13:55;;;;;;;0.70;0.60;;;;;;;;;;5073210;28;20957;-78
2022/07/08 02:16:22;;;;;;;0.80;0.70;;;;;;;;;;5073211;28;20518;-77
2022/07/08 02:18:55;;;;;;;0.70;0.70;;;;;;;;;;5072487;28;20428;-77
2022/07/08 02:21:21;;;;;;;0.70;0.60;;;;;;;;;;5072688;28;20502;-76
2022/07/08 02:23:48;;;;;;;0.70;0.70;;;;;;;;;;5073886;28;20425;-77
2022/07/08 02:26:15;;;;;;;0.80;0.70;;;;;;;;;;5068223;28;22041;-77
2022/07/08 02:28:41;;;;;;;0.70;0.70;;;;;;;;;;5072133;28;20464;-77
2022/07/08 02:31:10;;;;;;;0.80;0.70;;;;;;;;;;5070775;28;20443;-76
2022/07/08 02:33:36;;;;;;;0.77;0.70;;;;;;;;;;5051523;28;20482;-77
2022/07/08 02:36:03;;;;;;;0.70;0.70;;;;;;;;;;5036141;28;20998;-77
2022/07/08 02:38:30;;;;;;;0.70;0.70;;;;;;;;;;5054408;28;20430;-77
2022/07/08 02:40:57;;;;;;;0.70;0.60;;;;;;;;;;5036524;28;20471;-77
2022/07/08 02:43:24;;;;;;;0.70;0.70;;;;;;;;;;5052938;28;20419;-77
2022/07/08 02:45:50;;;;;;;0.70;0.70;;;;;;;;;;5052600;28;20935;-78
2022/07/08 02:48:18;;;;;;;0.70;0.70;;;;;;;;;;5053781;28;20477;-78
2022/07/08 02:50:45;;;;;;;0.70;0.70;;;;;;;;;;5035953;28;20490;-78
2022/07/08 02:53:12;;;;;;;0.70;0.60;;;;;;;;;;5052330;28;20454;-77
2022/07/08 02:55:38;;;;;;;0.70;0.60;;;;;;;;;;5036221;28;20486;-77
2022/07/08 02:58:05;;;;;;;0.70;0.60;;;;;;;;;;5054149;28;20435;-77
2022/07/08 03:00:33;;;;;;;0.80;0.73;;;;;;;;;;5052295;28;20489;-77
2022/07/08 03:02:59;;;;;;;0.70;0.70;;;;;;;;;;5035854;28;20753;-77
2022/07/08 03:05:27;;;;;;;0.70;0.70;;;;;;;;;;5035817;28;20782;-77
2022/07/08 03:07:54;;;;;;;0.80;0.73;;;;;;;;;;5052334;28;20447;-77
2022/07/08 03:10:23;;;;;;;0.70;0.60;;;;;;;;;;5052411;28;20874;-78
2022/07/08 03:12:50;;;;;;;0.70;0.70;;;;;;;;;;5038813;28;20719;-78
2022/07/08 03:15:16;;;;;;;0.70;0.60;;;;;;;;;;5050955;28;20540;-77
2022/07/08 03:17:45;;;;;;;0.70;0.60;;;;;;;;;;5035736;28;20447;-78
2022/07/08 03:20:12;;;;;;;0.70;0.70;;;;;;;;;;5068917;28;20542;-77
2022/07/08 03:22:40;;;;;;;0.73;0.70;;;;;;;;;;5051724;28;20454;-77
2022/07/08 03:25:07;;;;;;;0.83;0.83;;;;;;;;;;5035519;28;20549;-77
2022/07/08 03:27:34;;;;;;;0.80;0.70;;;;;;;;;;5072099;28;20428;-79
2022/07/08 03:30:01;;;;;;;0.70;0.70;;;;;;;;;;5054996;28;20475;-78
2022/07/08 03:32:28;;;;;;;0.70;0.70;;;;;;;;;;5056111;28;20500;-80
2022/07/08 03:34:54;;;;;;;0.90;0.90;;;;;;;;;;5072261;28;20430;-78
2022/07/08 03:37:21;;;;;;;0.70;0.63;;;;;;;;;;5055450;28;20498;-77
2022/07/08 03:39:50;;;;;;;0.70;0.60;;;;;;;;;;5073299;28;20443;-78
2022/07/08 03:42:17;;;;;;;1.47;1.37;;;;;;;;;;5070880;28;20419;-77
2022/07/08 03:44:44;;;;;;;0.70;0.70;;;;;;;;;;5071183;28;20434;-78
2022/07/08 03:47:11;;;;;;;0.70;0.70;;;;;;;;;;5055233;28;20442;-77
2022/07/08 03:49:37;;;;;;;0.70;0.60;;;;;;;;;;5055389;28;20471;-77
2022/07/08 03:52:04;;;;;;;0.80;0.80;;;;;;;;;;5071992;28;20446;-77
2022/07/08 03:54:31;;;;;;;0.70;0.60;;;;;;;;;;5055414;28;20511;-77
2022/07/08 03:56:59;;;;;;;0.80;0.70;;;;;;;;;;5046376;28;20459;-77
2022/07/08 03:59:25;;;;;;;1.23;1.13;;;;;;;;;;5051455;28;20481;-77
2022/07/08 04:01:52;;;;;;;0.80;0.70;;;;;;;;;;5051412;28;20482;-77
2022/07/08 04:04:19;;;;;;;0.70;0.70;;;;;;;;;;5061395;28;20435;-78
2022/07/08 04:06:46;;;;;;;0.80;0.70;;;;;;;;;;5071676;28;20476;-77
2022/07/08 04:09:14;;;;;;;0.70;0.60;;;;;;;;;;5071505;28;20473;-77
2022/07/08 04:11:41;;;;;;;0.70;0.67;;;;;;;;;;5071529;28;20886;-78
2022/07/08 04:14:09;;;;;;;1.23;1.13;;;;;;;;;;5071454;28;20462;-78
2022/07/08 04:16:36;;;;;;;0.70;0.70;;;;;;;;;;5071219;28;20540;-77
2022/07/08 04:19:03;;;;;;;0.70;0.70;;;;;;;;;;5055069;28;20541;-77
2022/07/08 04:21:30;;;;;;;0.70;0.60;;;;;;;;;;5071219;28;20464;-78
2022/07/08 04:23:58;;;;;;;0.70;0.70;;;;;;;;;;5056097;28;20448;-78
2022/07/08 04:26:31;;;;;;;0.80;0.73;;;;;;;;;;5039351;28;20457;-78
2022/07/08 04:28:58;;;;;;;0.70;0.60;;;;;;;;;;5051390;28;21010;-78
2022/07/08 04:31:26;;;;;;;0.70;0.70;;;;;;;;;;5034778;28;20456;-78
2022/07/08 04:33:54;;;;;;;0.80;0.80;;;;;;;;;;5052581;28;20444;-77
2022/07/08 04:36:21;;;;;;;0.70;0.60;;;;;;;;;;5052221;28;20451;-78
2022/07/08 04:38:50;;;;;;;0.70;0.70;;;;;;;;;;5034794;28;20445;-76
2022/07/08 04:41:17;;;;;;;0.70;0.60;;;;;;;;;;5051365;28;20433;-78
2022/07/08 04:43:44;;;;;;;0.70;0.70;;;;;;;;;;5052030;28;20430;-78
2022/07/08 04:46:11;;;;;;;0.70;0.60;;;;;;;;;;5053317;28;20468;-78
2022/07/08 04:48:41;;;;;;;0.80;0.77;;;;;;;;;;5052358;28;20418;-77
2022/07/08 04:51:07;;;;;;;0.70;0.70;;;;;;;;;;5052451;28;20494;-78
2022/07/08 04:53:34;;;;;;;0.70;0.63;;;;;;;;;;5051422;28;20501;-78
2022/07/08 04:56:01;;;;;;;0.70;0.70;;;;;;;;;;5054811;28;20941;-78
2022/07/08 04:58:27;;;;;;;0.70;0.60;;;;;;;;;;5075482;28;21021;-77
2022/07/08 05:00:55;;;;;;;0.70;0.70;;;;;;;;;;5058261;28;20452;-79
2022/07/08 05:03:21;;;;;;;0.70;0.60;;;;;;;;;;5074881;28;20970;-79
2022/07/08 05:05:51;;;;;;;0.80;0.70;;;;;;;;;;5058294;28;20459;-78
2022/07/08 05:08:18;;;;;;;0.77;0.70;;;;;;;;;;5070914;28;20439;-77
2022/07/08 05:10:45;;;;;;;0.70;0.60;;;;;;;;;;5063165;28;20511;-77
2022/07/08 05:13:12;;;;;;;0.70;0.70;;;;;;;;;;5055560;28;20432;-78
2022/07/08 05:15:39;;;;;;;0.80;0.70;;;;;;;;;;5054147;28;20490;-78
2022/07/08 05:18:06;;;;;;;0.70;0.70;;;;;;;;;;5054635;28;20447;-78
2022/07/08 05:20:33;;;;;;;0.70;0.70;;;;;;;;;;5054773;28;20414;-77
2022/07/08 05:23:03;;;;;;;0.70;0.67;;;;;;;;;;5054934;28;20435;-77
2022/07/08 05:25:30;;;;;;;0.70;0.60;;;;;;;;;;5055815;28;20521;-78
2022/07/08 05:27:56;;;;;;;0.70;0.67;;;;;;;;;;5054619;28;20548;-79
2022/07/08 05:30:23;;;;;;;0.70;0.70;;;;;;;;;;5074069;28;20590;-79
2022/07/08 05:32:50;;;;;;;0.80;0.80;;;;;;;;;;5074174;28;20463;-78
2022/07/08 05:35:16;;;;;;;0.70;0.60;;;;;;;;;;5074300;28;20410;-79
2022/07/08 05:37:43;;;;;;;0.70;0.70;;;;;;;;;;5044491;28;20464;-78
2022/07/08 05:40:11;;;;;;;0.70;0.70;;;;;;;;;;5037464;28;20798;-78
2022/07/08 05:42:39;;;;;;;0.70;0.70;;;;;;;;;;5037670;28;20783;-77
2022/07/08 05:45:06;;;;;;;0.80;0.70;;;;;;;;;;5055091;28;20437;-77
2022/07/08 05:47:32;;;;;;;0.70;0.70;;;;;;;;;;5037241;28;20785;-78
2022/07/08 05:50:02;;;;;;;0.97;0.90;;;;;;;;;;5053646;28;20518;-77
2022/07/08 05:52:29;;;;;;;0.70;0.70;;;;;;;;;;5054287;28;20459;-77
2022/07/08 05:54:55;;;;;;;0.70;0.70;;;;;;;;;;5054335;28;20959;-77
2022/07/08 05:57:23;;;;;;;0.77;0.70;;;;;;;;;;5066607;28;20499;-76
2022/07/08 05:59:50;;;;;;;0.70;0.60;;;;;;;;;;5057760;28;20522;-77
2022/07/08 06:02:18;;;;;;;0.70;0.70;;;;;;;;;;5074218;28;20637;-77
2022/07/08 06:04:47;;;;;;;0.70;0.60;;;;;;;;;;5057521;28;20804;-77
2022/07/08 06:07:14;;;;;;;0.70;0.60;;;;;;;;;;5057588;28;20566;-77
2022/07/08 06:09:43;;;;;;;0.70;0.60;;;;;;;;;;5074132;28;20465;-78
2022/07/08 06:12:10;;;;;;;0.70;0.67;;;;;;;;;;5074219;28;20525;-77
2022/07/08 06:14:40;;;;;;;0.80;0.70;;;;;;;;;;5073735;28;20454;-78
2022/07/08 06:17:06;;;;;;;0.80;0.80;;;;;;;;;;5050673;28;20474;-77
2022/07/08 06:19:33;;;;;;;0.70;0.67;;;;;;;;;;5073754;28;20474;-77
2022/07/08 06:22:00;;;;;;;0.70;0.70;;;;;;;;;;5073706;28;20553;-77
2022/07/08 06:24:27;;;;;;;0.80;0.70;;;;;;;;;;5057867;28;20429;-77
2022/07/08 06:26:53;;;;;;;0.80;0.70;;;;;;;;;;5074273;28;20433;-76
2022/07/08 06:29:20;;;;;;;0.80;0.73;;;;;;;;;;5075227;28;20435;-77
2022/07/08 06:31:50;;;;;;;1.43;1.33;;;;;;;;;;5056838;28;20541;-76
2022/07/08 06:34:17;;;;;;;1.10;0.87;;;;;;;;;;5071720;28;20437;-77
2022/07/08 06:36:45;;;;;;;0.70;0.70;;;;;;;;;;5056723;28;20457;-77
2022/07/08 06:39:13;;;;;;;0.70;0.70;;;;;;;;;;5057332;28;20961;-76
2022/07/08 06:41:40;;;;;;;0.70;0.70;;;;;;;;;;5036820;28;20452;-77
2022/07/08 06:44:07;;;;;;;0.73;0.70;;;;;;;;;;5036030;28;20447;-78
2022/07/08 06:46:36;;;;;;;0.80;0.80;;;;;;;;;;5036914;28;20450;-77
2022/07/08 06:49:06;;;;;;;1.10;1.00;;;;;;;;;;5070176;28;20443;-78
2022/07/08 06:52:01;;;;;;;0.80;0.80;;;;;;;;;;5079338;28;20452;-79
2022/07/08 06:54:35;;;;;;;0.70;0.70;;;;;;;;;;5084730;28;20440;-78
2022/07/08 06:57:02;;;;;;;0.77;0.77;;;;;;;;;;5072408;28;20454;-77
2022/07/08 06:59:29;;;;;;;0.70;0.60;;;;;;;;;;5072497;28;20446;-78
2022/07/08 07:02:16;;;;;;;0.97;0.90;;;;;;;;;;5058451;28;20422;-77
2022/07/08 07:04:44;;;;;;;0.70;0.60;;;;;;;;;;5047767;28;20444;-77
2022/07/08 07:07:11;;;;;;;0.90;0.90;;;;;;;;;;5073245;28;20512;-76
2022/07/08 07:09:45;;;;;;;0.80;0.70;;;;;;;;;;5074094;28;20418;-78
2022/07/08 07:12:12;;;;;;;0.80;0.80;;;;;;;;;;5072841;28;20510;-77
2022/07/08 07:14:39;;;;;;;0.80;0.70;;;;;;;;;;5056136;28;20447;-77
2022/07/08 07:17:05;;;;;;;0.80;0.80;;;;;;;;;;5073337;28;20423;-77
2022/07/08 07:19:33;;;;;;;0.70;0.60;;;;;;;;;;5072165;28;20492;-78
2022/07/08 07:22:03;;;;;;;0.80;0.70;;;;;;;;;;5072846;28;20463;-79
2022/07/08 07:24:30;;;;;;;0.80;0.70;;;;;;;;;;5073060;28;20443;-78
2022/07/08 07:26:56;;;;;;;0.80;0.70;;;;;;;;;;5063918;28;20456;-78
2022/07/08 07:29:23;;;;;;;1.17;1.07;;;;;;;;;;5036046;28;20448;-77
2022/07/08 07:31:50;;;;;;;2.13;2.03;;;;;;;;;;5052245;28;20459;-77
2022/07/08 07:34:17;;;;;;;0.83;0.83;;;;;;;;;;5052303;28;20426;-78
2022/07/08 07:36:43;;;;;;;0.70;0.70;;;;;;;;;;5051621;28;20471;-78
2022/07/08 07:39:12;;;;;;;0.80;0.70;;;;;;;;;;5035875;28;20455;-78
2022/07/08 07:41:39;;;;;;;0.77;0.70;;;;;;;;;;5038104;28;20444;-78
2022/07/08 07:44:05;;;;;;;1.10;1.00;;;;;;;;;;5053433;28;20463;-78
2022/07/08 07:46:32;;;;;;;0.80;0.80;;;;;;;;;;5052855;28;20482;-77
2022/07/08 07:48:59;;;;;;;0.77;0.70;;;;;;;;;;5052107;28;20436;-77
2022/07/08 07:51:28;;;;;;;1.33;1.23;;;;;;;;;;5052282;28;20999;-76
2022/07/08 07:53:56;;;;;;;0.80;0.70;;;;;;;;;;5051524;28;20475;-77
2022/07/08 07:56:24;;;;;;;0.70;0.60;;;;;;;;;;5039526;28;20453;-76
2022/07/08 07:58:51;;;;;;;0.80;0.77;;;;;;;;;;5072213;28;20534;-76
2022/07/08 08:01:18;;;;;;;0.70;0.70;;;;;;;;;;5072217;28;20500;-76
2022/07/08 08:03:45;;;;;;;0.80;0.70;;;;;;;;;;5056254;28;20804;-75
2022/07/08 08:06:12;;;;;;;0.70;0.60;;;;;;;;;;5072338;28;20505;-76
2022/07/08 08:08:39;;;;;;;0.80;0.73;;;;;;;;;;5072337;28;20458;-76
2022/07/08 08:11:06;;;;;;;0.70;0.70;;;;;;;;;;5070170;28;20501;-77
2022/07/08 08:13:34;;;;;;;0.80;0.70;;;;;;;;;;5063129;28;20772;-77
2022/07/08 08:16:01;;;;;;;0.80;0.70;;;;;;;;;;5072461;28;20954;-76
2022/07/08 08:18:28;;;;;;;0.80;0.60;;;;;;;;;;5055947;28;20439;-77
2022/07/08 08:20:56;;;;;;;0.80;0.80;;;;;;;;;;5072740;28;20844;-78
2022/07/08 08:23:23;;;;;;;0.80;0.80;;;;;;;;;;5074032;28;20455;-76
2022/07/08 08:26:12;;;;;;;0.80;0.70;;;;;;;;;;5073672;28;20857;-76
2022/07/08 08:28:40;;;;;;;1.20;1.10;;;;;;;;;;5073022;28;20818;-76
2022/07/08 08:31:06;;;;;;;0.80;0.70;;;;;;;;;;5052402;28;20830;-76
2022/07/08 08:33:36;;;;;;;0.77;0.70;;;;;;;;;;5055941;28;20417;-76
2022/07/08 08:36:04;;;;;;;0.80;0.70;;;;;;;;;;5056081;28;20522;-75
2022/07/08 08:38:30;;;;;;;0.80;0.70;;;;;;;;;;5039047;28;20451;-76
2022/07/08 08:40:59;;;;;;;0.80;0.80;;;;;;;;;;5051294;28;20497;-77
2022/07/08 08:43:26;;;;;;;0.70;0.70;;;;;;;;;;5054377;28;20509;-77
2022/07/08 08:45:54;;;;;;;0.80;0.80;;;;;;;;;;5055383;28;20432;-76
2022/07/08 08:48:22;;;;;;;0.77;0.67;;;;;;;;;;5037549;28;20451;-76
2022/07/08 08:50:54;;;;;;;0.80;0.70;;;;;;;;;;5053342;28;20467;-77
2022/07/08 08:53:26;;;;;;;0.80;0.70;;;;;;;;;;5053695;28;20418;-76
2022/07/08 08:55:53;;;;;;;0.80;0.70;;;;;;;;;;5036934;28;20476;-76
2022/07/08 08:58:20;;;;;;;0.73;0.70;;;;;;;;;;5037025;28;20414;-77
2022/07/08 09:00:47;;;;;;;0.77;0.60;;;;;;;;;;5063837;28;20493;-76
2022/07/08 09:03:16;;;;;;;0.70;0.60;;;;;;;;;;5073363;28;20493;-76
2022/07/08 09:05:43;;;;;;;0.80;0.80;;;;;;;;;;5056805;28;20545;-77
2022/07/08 09:08:10;;;;;;;0.70;0.60;;;;;;;;;;5069889;28;20443;-74
2022/07/08 09:10:37;;;;;;;0.70;0.60;;;;;;;;;;5056564;28;20479;-76
2022/07/08 09:13:06;;;;;;;0.70;0.60;;;;;;;;;;5075236;28;20474;-74
2022/07/08 09:15:34;;;;;;;0.70;0.70;;;;;;;;;;5073305;28;20465;-75
2022/07/08 09:18:01;;;;;;;0.90;0.90;;;;;;;;;;5073662;28;20534;-75
2022/07/08 09:20:38;;;;;;;0.80;0.70;;;;;;;;;;5072962;28;20435;-76
2022/07/08 09:23:07;;;;;;;0.80;0.70;;;;;;;;;;5056906;28;20809;-75
2022/07/08 09:25:34;;;;;;;0.73;0.60;;;;;;;;;;5072987;28;20423;-75
2022/07/08 09:28:01;;;;;;;0.70;0.60;;;;;;;;;;5072991;28;20528;-75
2022/07/08 09:30:30;;;;;;;1.20;1.00;;;;;;;;;;5056324;28;20479;-76
2022/07/08 09:33:01;;;;;;;0.70;0.60;;;;;;;;;;5073046;28;20404;-75
2022/07/08 09:35:31;;;;;;;0.70;0.70;;;;;;;;;;5056546;28;20443;-75
2022/07/08 09:38:02;;;;;;;0.70;0.60;;;;;;;;;;5073378;28;20463;-76
2022/07/08 09:40:29;;;;;;;0.70;0.60;;;;;;;;;;5073753;28;21021;-76
2022/07/08 09:42:56;;;;;;;1.10;1.00;;;;;;;;;;5072735;28;20484;-75
2022/07/08 09:45:27;;;;;;;0.90;0.67;;;;;;;;;;5070720;28;20428;-74
2022/07/08 09:48:03;;;;;;;0.80;0.70;;;;;;;;;;5072903;28;20431;-75
2022/07/08 09:50:39;;;;;;;1.00;0.90;;;;;;;;;;5072830;28;20770;-74
2022/07/08 09:53:28;;;;;;;0.80;0.80;;;;;;;;;;5073289;28;20424;-75
2022/07/08 09:55:56;;;;;;;1.43;1.17;;;;;;;;;;5073649;28;20462;-76
2022/07/08 09:58:24;;;;;;;0.70;0.50;;;;;;;;;;5073551;28;20415;-76
2022/07/08 10:00:51;;;;;;;0.70;0.50;;;;;;;;;;5073876;28;20431;-75
2022/07/08 10:03:19;;;;;;;0.70;0.60;;;;;;;;;;5071974;28;20569;-76
2022/07/08 10:05:46;;;;;;;0.80;0.67;;;;;;;;;;5073267;28;20451;-75
2022/07/08 10:08:13;;;;;;;0.70;0.60;;;;;;;;;;5063472;28;20968;-75
2022/07/08 10:10:43;;;;;;;0.70;0.50;;;;;;;;;;5036734;28;20444;-75
2022/07/08 10:13:12;;;;;;;0.70;0.50;;;;;;;;;;5056127;28;20456;-75
2022/07/08 10:15:40;;;;;;;0.70;0.50;;;;;;;;;;5054208;28;20436;-75
2022/07/08 10:18:11;;;;;;;0.70;0.50;;;;;;;;;;5053356;28;20830;-75
2022/07/08 10:20:39;;;;;;;0.70;0.50;;;;;;;;;;5035495;28;20446;-75
2022/07/08 10:23:09;;;;;;;0.70;0.60;;;;;;;;;;5053288;28;20427;-74
2022/07/08 10:25:36;;;;;;;0.80;0.60;;;;;;;;;;5051784;28;20541;-76
2022/07/08 10:28:05;;;;;;;0.70;0.60;;;;;;;;;;5052791;28;20890;-74
2022/07/08 10:30:43;;;;;;;0.70;0.50;;;;;;;;;;5054827;28;20516;-75
2022/07/08 10:33:11;;;;;;;0.70;0.50;;;;;;;;;;5072431;28;20462;-75
2022/07/08 10:35:57;;;;;;;0.70;0.60;;;;;;;;;;5053551;28;20428;-74
2022/07/08 10:38:28;;;;;;;0.80;0.60;;;;;;;;;;5053219;28;20404;-72
2022/07/08 10:40:59;;;;;;;0.70;0.60;;;;;;;;;;5053242;28;20416;-73
2022/07/08 10:43:28;;;;;;;0.70;0.50;;;;;;;;;;5053338;28;20429;-73
2022/07/08 10:46:10;;;;;;;0.70;0.50;;;;;;;;;;5036724;28;20451;-73
2022/07/08 10:48:45;;;;;;;0.70;0.50;;;;;;;;;;5053764;28;20450;-73
2022/07/08 10:51:33;;;;;;;0.70;0.50;;;;;;;;;;5055338;28;20460;-75
2022/07/08 10:54:08;;;;;;;0.80;0.50;;;;;;;;;;5058220;28;20943;-74
2022/07/08 10:56:45;;;;;;;0.70;0.60;;;;;;;;;;5070565;28;20489;-75
2022/07/08 10:59:17;;;;;;;0.80;0.70;;;;;;;;;;5058292;28;20450;-75
2022/07/08 11:01:48;;;;;;;0.70;0.50;;;;;;;;;;5073049;28;20973;-75
2022/07/08 11:04:19;;;;;;;0.77;0.60;;;;;;;;;;5075398;28;20415;-74
2022/07/08 11:06:45;;;;;;;0.70;0.60;;;;;;;;;;5074768;28;20489;-75
2022/07/08 11:09:15;;;;;;;0.70;0.50;;;;;;;;;;5073589;28;20446;-74
2022/07/08 11:11:43;;;;;;;0.70;0.60;;;;;;;;;;5078656;28;20459;-75
2022/07/08 11:14:11;;;;;;;0.70;0.60;;;;;;;;;;5075944;28;20458;-74
2022/07/08 11:16:39;;;;;;;0.70;0.60;;;;;;;;;;5075836;28;20774;-74
2022/07/08 11:19:07;;;;;;;0.70;0.60;;;;;;;;;;5075994;28;20795;-75
2022/07/08 11:21:33;;;;;;;0.70;0.50;;;;;;;;;;5057166;28;20459;-75
2022/07/08 11:24:00;;;;;;;0.70;0.60;;;;;;;;;;5074373;28;20447;-76
2022/07/08 11:26:27;;;;;;;0.70;0.60;;;;;;;;;;5075709;28;20439;-74
2022/07/08 11:28:54;;;;;;;3.93;0.83;;;;;;;;;;5074935;28;20969;-73
2022/07/08 11:31:24;;;;;;;0.70;0.50;;;;;;;;;;5074236;28;20985;-75
2022/07/08 11:33:53;;;;;;;0.70;0.60;;;;;;;;;;5058472;28;20443;-74
2022/07/08 11:36:20;;;;;;;0.70;0.60;;;;;;;;;;5075343;28;20497;-75
2022/07/08 11:38:47;;;;;;;0.70;0.53;;;;;;;;;;5072756;28;20451;-74
2022/07/08 11:41:15;;;;;;;0.80;0.70;;;;;;;;;;5058456;28;20450;-75
2022/07/08 11:43:42;;;;;;;0.70;0.60;;;;;;;;;;5077106;28;20427;-75
2022/07/08 11:46:19;;;;;;;0.80;0.60;;;;;;;;;;5075996;28;20497;-75
2022/07/08 11:48:47;;;;;;;0.70;0.50;;;;;;;;;;5055866;28;20447;-75
2022/07/08 11:51:16;;;;;;;0.70;0.60;;;;;;;;;;5079215;28;20449;-76
2022/07/08 11:53:43;;;;;;;0.70;0.50;;;;;;;;;;5074583;28;20447;-77
2022/07/08 11:56:09;;;;;;;0.70;0.50;;;;;;;;;;5073633;28;20451;-74
2022/07/08 11:58:39;;;;;;;0.80;0.60;;;;;;;;;;5074299;28;20981;-74
2022/07/08 12:01:06;;;;;;;6.63;2.30;;;;;;;;;;5070956;28;21009;-74
2022/07/08 12:03:34;;;;;;;0.70;0.50;;;;;;;;;;5061169;28;20527;-75
2022/07/08 12:06:04;;;;;;;0.80;0.70;;;;;;;;;;5057990;28;20443;-75
2022/07/08 12:08:40;;;;;;;0.80;0.60;;;;;;;;;;5061938;28;20457;-76
2022/07/08 12:11:10;;;;;;;0.70;0.60;;;;;;;;;;5044139;28;20447;-76
2022/07/08 12:13:41;;;;;;;0.70;0.60;;;;;;;;;;5057431;28;20479;-75
2022/07/08 12:16:07;;;;;;;0.80;0.70;;;;;;;;;;5058126;28;20430;-76
2022/07/08 12:18:36;;;;;;;0.70;0.60;;;;;;;;;;5056769;28;20924;-75
2022/07/08 12:21:16;;;;;;;0.70;0.50;;;;;;;;;;5039201;28;20554;-76
2022/07/08 12:23:44;;;;;;;0.80;0.60;;;;;;;;;;5056770;28;20770;-75
2022/07/08 12:26:11;;;;;;;1.90;1.43;;;;;;;;;;5057489;28;20443;-76
2022/07/08 12:28:37;;;;;;;0.73;0.60;;;;;;;;;;5076225;28;20799;-76
2022/07/08 12:31:04;;;;;;;0.70;0.50;;;;;;;;;;5074554;28;20454;-76
2022/07/08 12:33:32;;;;;;;0.70;0.50;;;;;;;;;;5073408;28;20451;-75
2022/07/08 12:36:01;;;;;;;0.70;0.60;;;;;;;;;;5077031;28;21031;-76
2022/07/08 12:38:28;;;;;;;0.70;0.50;;;;;;;;;;5079832;28;20518;-73
2022/07/08 12:40:56;;;;;;;0.70;0.50;;;;;;;;;;5059478;28;20430;-78
2022/07/08 12:43:29;;;;;;;0.70;0.50;;;;;;;;;;5075581;28;20411;-74
2022/07/08 12:45:57;;;;;;;0.70;0.50;;;;;;;;;;5058368;28;20461;-74
2022/07/08 12:48:25;;;;;;;0.80;0.70;;;;;;;;;;5076050;28;20412;-75
2022/07/08 12:50:59;;;;;;;0.77;0.67;;;;;;;;;;5064644;28;20447;-74
2022/07/08 12:53:25;;;;;;;0.70;0.50;;;;;;;;;;5074755;28;20537;-75
2022/07/08 12:55:53;;;;;;;0.70;0.57;;;;;;;;;;5075435;28;20510;-75
2022/07/08 12:58:25;;;;;;;0.77;0.60;;;;;;;;;;5073868;28;20849;-76
2022/07/08 13:00:53;;;;;;;0.70;0.50;;;;;;;;;;5075902;28;20469;-75
2022/07/08 13:03:20;;;;;;;0.70;0.50;;;;;;;;;;5057749;28;20427;-76
2022/07/08 13:05:46;;;;;;;1.00;0.90;;;;;;;;;;5076524;28;20480;-76
2022/07/08 13:08:13;;;;;;;1.30;1.20;;;;;;;;;;5067548;28;20451;-75
2022/07/08 13:10:40;;;;;;;0.80;0.70;;;;;;;;;;5056050;28;20499;-75
2022/07/08 13:13:06;;;;;;;0.70;0.53;;;;;;;;;;5038420;28;20480;-76
2022/07/08 13:15:35;;;;;;;0.70;0.50;;;;;;;;;;5055043;28;20803;-75
2022/07/08 13:18:02;;;;;;;0.70;0.60;;;;;;;;;;5055103;28;20435;-75
2022/07/08 13:20:28;;;;;;;0.70;0.60;;;;;;;;;;5055050;28;20440;-76
2022/07/08 13:22:55;;;;;;;0.70;0.57;;;;;;;;;;5053986;28;20491;-75
2022/07/08 13:25:22;;;;;;;0.70;0.60;;;;;;;;;;5055851;28;20849;-76
2022/07/08 13:27:48;;;;;;;0.80;0.60;;;;;;;;;;5072129;28;20435;-74
2022/07/08 13:30:15;;;;;;;0.70;0.60;;;;;;;;;;5074045;28;20488;-76
2022/07/08 13:32:43;;;;;;;0.70;0.50;;;;;;;;;;5075478;28;20998;-74
2022/07/08 13:35:09;;;;;;;0.70;0.50;;;;;;;;;;5074968;28;20538;-73
2022/07/08 13:37:36;;;;;;;1.43;0.80;;;;;;;;;;5081520;28;20447;-75
2022/07/08 13:40:04;;;;;;;0.70;0.50;;;;;;;;;;5080671;28;20538;-76
2022/07/08 13:42:31;;;;;;;0.70;0.60;;;;;;;;;;5058104;28;20442;-76
2022/07/08 13:44:58;;;;;;;0.80;0.60;;;;;;;;;;5074869;28;20419;-75
2022/07/08 13:47:25;;;;;;;0.70;0.50;;;;;;;;;;5076394;28;20521;-76
2022/07/08 13:49:53;;;;;;;0.80;0.70;;;;;;;;;;5058343;28;20450;-76
2022/07/08 13:52:20;;;;;;;0.70;0.50;;;;;;;;;;5057446;28;20478;-75
2022/07/08 13:55:00;;;;;;;0.80;0.60;;;;;;;;;;5071209;28;20435;-74
2022/07/08 13:57:26;;;;;;;0.70;0.60;;;;;;;;;;5070250;28;20496;-74
2022/07/08 13:59:53;;;;;;;0.70;0.50;;;;;;;;;;5063229;28;20489;-75
2022/07/08 14:02:24;;;;;;;0.80;0.70;;;;;;;;;;5055713;28;20468;-73
2022/07/08 14:04:50;;;;;;;0.70;0.50;;;;;;;;;;5056591;28;20507;-75
2022/07/08 14:07:18;;;;;;;0.70;0.50;;;;;;;;;;5054760;28;20796;-76
2022/07/08 14:09:46;;;;;;;0.70;0.60;;;;;;;;;;5055354;28;20443;-75
2022/07/08 14:12:14;;;;;;;0.70;0.50;;;;;;;;;;5058885;28;20432;-74
2022/07/08 14:14:41;;;;;;;0.80;0.70;;;;;;;;;;5039804;28;20994;-75
2022/07/08 14:17:08;;;;;;;0.70;0.53;;;;;;;;;;5046042;28;20857;-76
2022/07/08 14:19:35;;;;;;;0.70;0.60;;;;;;;;;;5078360;28;20760;-75
2022/07/08 14:22:03;;;;;;;0.80;0.60;;;;;;;;;;5055756;28;20554;-74
2022/07/08 14:24:32;;;;;;;0.70;0.50;;;;;;;;;;5076171;28;21012;-75
2022/07/08 14:26:59;;;;;;;0.90;0.67;;;;;;;;;;5081244;28;20518;-74
2022/07/08 14:29:26;;;;;;;0.70;0.50;;;;;;;;;;5078521;28;20469;-75
2022/07/08 14:31:53;;;;;;;0.70;0.50;;;;;;;;;;5077099;28;20427;-75
2022/07/08 14:34:20;;;;;;;0.70;0.50;;;;;;;;;;5078281;28;20467;-74
2022/07/08 14:36:47;;;;;;;0.70;0.53;;;;;;;;;;5080285;28;20462;-76
2022/07/08 14:39:14;;;;;;;1.17;1.07;;;;;;;;;;5065854;28;20443;-76
2022/07/08 14:41:45;;;;;;;0.70;0.60;;;;;;;;;;5041597;28;20444;-74
2022/07/08 14:44:12;;;;;;;0.80;0.70;;;;;;;;;;5056161;28;20435;-74
2022/07/08 14:46:38;;;;;;;1.03;0.93;;;;;;;;;;5062618;28;20442;-76
2022/07/08 14:49:05;;;;;;;0.80;0.70;;;;;;;;;;5039216;28;20551;-76
2022/07/08 14:51:34;;;;;;;0.77;0.60;;;;;;;;;;5058813;28;20447;-76